Аэропорт: Кневичи. Владивосток

ICAO: UHWW

METAR:
2022-06-26 10:00:00
UHWW 261000Z 34003MPS 9999 NSC 25/18 Q1003 R25L/0///70 NOSIG RMK QFE751
METAR:
2022-06-26 07:57:00
TAF UHWW 260757Z 2609/2709 35003MPS 9999 SCT025CB TEMPO 2609/2615 6000 -SHRA BECMG 2615/2619 0300 FG VV002 BECMG 2621/2623 9999 NSW SCT020 BECMG 2700/2702 22003G08MPS